sensor_id;sensor_type;location;lat;lon;timestamp;P1;durP1;ratioP1;P2;durP2;ratioP2
13797;SDS011;6970;51.340;3.240;2023-01-01T00:02:01;7.83;;;3.40;;
13797;SDS011;6970;51.340;3.240;2023-01-01T00:04:28;10.80;;;2.77;;
13797;SDS011;6970;51.340;3.240;2023-01-01T00:06:55;10.80;;;3.60;;
13797;SDS011;6970;51.340;3.240;2023-01-01T00:09:23;10.80;;;3.20;;
13797;SDS011;6970;51.340;3.240;2023-01-01T00:12:11;7.63;;;2.50;;
13797;SDS011;6970;51.340;3.240;2023-01-01T00:14:42;10.73;;;3.17;;
13797;SDS011;6970;51.340;3.240;2023-01-01T00:17:09;6.57;;;2.47;;
13797;SDS011;6970;51.340;3.240;2023-01-01T00:19:39;8.80;;;3.40;;
13797;SDS011;6970;51.340;3.240;2023-01-01T00:24:56;9.27;;;2.70;;
13797;SDS011;6970;51.340;3.240;2023-01-01T00:27:24;8.73;;;2.70;;
13797;SDS011;6970;51.340;3.240;2023-01-01T00:29:52;6.23;;;2.90;;
13797;SDS011;6970;51.340;3.240;2023-01-01T00:32:25;7.10;;;2.57;;
13797;SDS011;6970;51.340;3.240;2023-01-01T00:34:55;8.73;;;3.27;;
13797;SDS011;6970;51.340;3.240;2023-01-01T00:37:24;10.03;;;3.03;;
13797;SDS011;6970;51.340;3.240;2023-01-01T00:39:54;8.40;;;3.43;;
13797;SDS011;6970;51.340;3.240;2023-01-01T00:42:24;6.83;;;2.60;;
13797;SDS011;6970;51.340;3.240;2023-01-01T00:44:51;9.00;;;2.63;;
13797;SDS011;6970;51.340;3.240;2023-01-01T00:47:21;8.47;;;2.83;;
13797;SDS011;6970;51.340;3.240;2023-01-01T00:49:48;10.20;;;2.70;;
13797;SDS011;6970;51.340;3.240;2023-01-01T00:52:16;10.87;;;3.00;;
13797;SDS011;6970;51.340;3.240;2023-01-01T00:57:13;7.17;;;2.80;;
13797;SDS011;6970;51.340;3.240;2023-01-01T00:59:41;10.97;;;3.07;;
13797;SDS011;6970;51.340;3.240;2023-01-01T01:02:12;10.57;;;2.90;;
13797;SDS011;6970;51.340;3.240;2023-01-01T01:04:43;11.57;;;2.60;;
13797;SDS011;6970;51.340;3.240;2023-01-01T01:07:11;7.77;;;2.73;;
13797;SDS011;6970;51.340;3.240;2023-01-01T01:09:38;5.87;;;2.67;;
13797;SDS011;6970;51.340;3.240;2023-01-01T01:12:04;7.83;;;2.20;;
13797;SDS011;6970;51.340;3.240;2023-01-01T01:14:46;7.97;;;2.27;;
13797;SDS011;6970;51.340;3.240;2023-01-01T01:17:15;5.37;;;2.47;;
13797;SDS011;6970;51.340;3.240;2023-01-01T01:22:13;7.20;;;2.53;;
13797;SDS011;6970;51.340;3.240;2023-01-01T01:27:11;4.30;;;1.70;;
13797;SDS011;6970;51.340;3.240;2023-01-01T01:32:11;6.10;;;1.90;;
13797;SDS011;6970;51.340;3.240;2023-01-01T01:34:41;4.93;;;2.00;;
13797;SDS011;6970;51.340;3.240;2023-01-01T01:37:09;6.10;;;1.90;;
13797;SDS011;6970;51.340;3.240;2023-01-01T01:39:40;4.37;;;1.90;;
13797;SDS011;6970;51.340;3.240;2023-01-01T01:42:11;6.80;;;1.73;;
13797;SDS011;6970;51.340;3.240;2023-01-01T01:44:51;8.10;;;1.93;;
13797;SDS011;6970;51.340;3.240;2023-01-01T01:47:25;6.20;;;2.60;;
13797;SDS011;6970;51.340;3.240;2023-01-01T01:49:58;6.80;;;2.30;;
13797;SDS011;6970;51.340;3.240;2023-01-01T01:52:28;9.97;;;2.43;;
13797;SDS011;6970;51.340;3.240;2023-01-01T01:55:00;5.70;;;1.87;;
13797;SDS011;6970;51.340;3.240;2023-01-01T02:00:00;8.60;;;2.83;;
13797;SDS011;6970;51.340;3.240;2023-01-01T02:02:37;8.40;;;2.07;;
13797;SDS011;6970;51.340;3.240;2023-01-01T02:05:13;3.77;;;1.60;;
13797;SDS011;6970;51.340;3.240;2023-01-01T02:07:45;7.10;;;2.20;;
13797;SDS011;6970;51.340;3.240;2023-01-01T02:10:13;6.83;;;2.23;;
13797;SDS011;6970;51.340;3.240;2023-01-01T02:12:43;5.17;;;2.00;;
13797;SDS011;6970;51.340;3.240;2023-01-01T02:32:00;3.60;;;1.90;;
13797;SDS011;6970;51.340;3.240;2023-01-01T02:34:42;8.97;;;3.00;;
13797;SDS011;6970;51.340;3.240;2023-01-01T02:37:14;7.07;;;2.07;;
13797;SDS011;6970;51.340;3.240;2023-01-01T02:39:51;5.93;;;1.93;;
13797;SDS011;6970;51.340;3.240;2023-01-01T02:42:24;13.00;;;2.90;;
13797;SDS011;6970;51.340;3.240;2023-01-01T02:44:54;7.53;;;2.53;;
13797;SDS011;6970;51.340;3.240;2023-01-01T02:47:26;9.67;;;2.90;;
13797;SDS011;6970;51.340;3.240;2023-01-01T02:50:06;6.77;;;2.17;;
13797;SDS011;6970;51.340;3.240;2023-01-01T02:55:46;14.80;;;2.70;;
13797;SDS011;6970;51.340;3.240;2023-01-01T03:01:49;14.30;;;3.20;;
13797;SDS011;6970;51.340;3.240;2023-01-01T03:07:26;8.53;;;2.60;;
13797;SDS011;6970;51.340;3.240;2023-01-01T03:16:14;7.60;;;2.53;;
13797;SDS011;6970;51.340;3.240;2023-01-01T03:21:18;4.10;;;1.67;;
13797;SDS011;6970;51.340;3.240;2023-01-01T03:23:48;5.07;;;1.50;;
13797;SDS011;6970;51.340;3.240;2023-01-01T03:26:23;2.60;;;0.90;;
13797;SDS011;6970;51.340;3.240;2023-01-01T03:28:58;2.07;;;1.10;;
13797;SDS011;6970;51.340;3.240;2023-01-01T03:34:05;4.40;;;1.57;;
13797;SDS011;6970;51.340;3.240;2023-01-01T03:36:41;5.50;;;2.00;;
13797;SDS011;6970;51.340;3.240;2023-01-01T03:39:14;6.77;;;2.43;;
13797;SDS011;6970;51.340;3.240;2023-01-01T03:47:29;6.60;;;2.40;;
13797;SDS011;6970;51.340;3.240;2023-01-01T03:50:02;5.20;;;2.03;;
13797;SDS011;6970;51.340;3.240;2023-01-01T03:58:11;6.43;;;1.87;;
13797;SDS011;6970;51.340;3.240;2023-01-01T04:03:36;4.63;;;1.37;;
13797;SDS011;6970;51.340;3.240;2023-01-01T04:06:05;6.53;;;1.30;;
13797;SDS011;6970;51.340;3.240;2023-01-01T04:08:34;5.63;;;1.60;;
13797;SDS011;6970;51.340;3.240;2023-01-01T04:11:05;5.30;;;1.60;;
13797;SDS011;6970;51.340;3.240;2023-01-01T04:16:26;6.47;;;1.73;;
13797;SDS011;6970;51.340;3.240;2023-01-01T04:18:53;5.43;;;1.70;;
13797;SDS011;6970;51.340;3.240;2023-01-01T04:21:24;6.97;;;1.70;;
13797;SDS011;6970;51.340;3.240;2023-01-01T04:26:24;4.40;;;1.30;;
13797;SDS011;6970;51.340;3.240;2023-01-01T04:28:54;4.97;;;1.97;;
13797;SDS011;6970;51.340;3.240;2023-01-01T04:31:22;5.93;;;1.47;;
13797;SDS011;6970;51.340;3.240;2023-01-01T04:33:52;5.33;;;1.50;;
13797;SDS011;6970;51.340;3.240;2023-01-01T04:38:52;6.40;;;1.87;;
13797;SDS011;6970;51.340;3.240;2023-01-01T04:41:22;4.37;;;1.30;;
13797;SDS011;6970;51.340;3.240;2023-01-01T04:43:49;3.93;;;1.10;;
13797;SDS011;6970;51.340;3.240;2023-01-01T04:46:17;5.23;;;1.67;;
13797;SDS011;6970;51.340;3.240;2023-01-01T04:48:46;3.30;;;1.83;;
13797;SDS011;6970;51.340;3.240;2023-01-01T04:51:14;5.03;;;1.40;;
13797;SDS011;6970;51.340;3.240;2023-01-01T04:53:44;3.33;;;1.27;;
13797;SDS011;6970;51.340;3.240;2023-01-01T04:56:13;3.70;;;1.03;;
13797;SDS011;6970;51.340;3.240;2023-01-01T04:58:49;4.40;;;1.37;;
13797;SDS011;6970;51.340;3.240;2023-01-01T05:01:20;4.50;;;1.00;;
13797;SDS011;6970;51.340;3.240;2023-01-01T05:03:49;4.57;;;1.07;;
13797;SDS011;6970;51.340;3.240;2023-01-01T05:08:50;5.37;;;1.30;;
13797;SDS011;6970;51.340;3.240;2023-01-01T05:11:24;6.50;;;1.73;;
13797;SDS011;6970;51.340;3.240;2023-01-01T05:16:26;7.10;;;1.53;;
13797;SDS011;6970;51.340;3.240;2023-01-01T05:18:56;6.03;;;1.20;;
13797;SDS011;6970;51.340;3.240;2023-01-01T05:21:27;8.47;;;1.30;;
13797;SDS011;6970;51.340;3.240;2023-01-01T05:26:32;8.23;;;1.90;;
13797;SDS011;6970;51.340;3.240;2023-01-01T05:29:04;9.67;;;1.80;;
13797;SDS011;6970;51.340;3.240;2023-01-01T05:31:42;7.43;;;1.63;;
13797;SDS011;6970;51.340;3.240;2023-01-01T05:34:11;6.33;;;1.47;;
13797;SDS011;6970;51.340;3.240;2023-01-01T05:39:11;4.90;;;0.90;;
13797;SDS011;6970;51.340;3.240;2023-01-01T05:44:08;6.53;;;1.17;;
13797;SDS011;6970;51.340;3.240;2023-01-01T05:46:43;5.77;;;1.33;;
13797;SDS011;6970;51.340;3.240;2023-01-01T05:51:41;6.30;;;1.27;;
13797;SDS011;6970;51.340;3.240;2023-01-01T05:54:10;4.80;;;1.30;;
13797;SDS011;6970;51.340;3.240;2023-01-01T05:56:39;5.63;;;1.67;;
13797;SDS011;6970;51.340;3.240;2023-01-01T05:59:08;5.47;;;1.30;;
13797;SDS011;6970;51.340;3.240;2023-01-01T06:01:36;4.17;;;1.37;;
13797;SDS011;6970;51.340;3.240;2023-01-01T06:04:14;6.87;;;1.60;;
13797;SDS011;6970;51.340;3.240;2023-01-01T06:06:41;7.47;;;1.40;;
13797;SDS011;6970;51.340;3.240;2023-01-01T06:11:39;5.50;;;1.33;;
13797;SDS011;6970;51.340;3.240;2023-01-01T06:14:08;6.57;;;1.63;;
13797;SDS011;6970;51.340;3.240;2023-01-01T06:19:05;7.60;;;2.03;;
13797;SDS011;6970;51.340;3.240;2023-01-01T06:21:33;11.87;;;1.97;;
13797;SDS011;6970;51.340;3.240;2023-01-01T06:24:03;11.03;;;1.57;;
13797;SDS011;6970;51.340;3.240;2023-01-01T06:26:31;8.97;;;1.40;;
13797;SDS011;6970;51.340;3.240;2023-01-01T06:29:00;9.93;;;2.30;;
13797;SDS011;6970;51.340;3.240;2023-01-01T06:31:28;9.53;;;2.20;;
13797;SDS011;6970;51.340;3.240;2023-01-01T06:34:09;8.77;;;2.83;;
13797;SDS011;6970;51.340;3.240;2023-01-01T06:39:09;6.83;;;1.77;;
13797;SDS011;6970;51.340;3.240;2023-01-01T06:41:38;9.37;;;1.93;;
13797;SDS011;6970;51.340;3.240;2023-01-01T06:44:06;9.27;;;2.07;;
13797;SDS011;6970;51.340;3.240;2023-01-01T06:46:35;6.40;;;2.00;;
13797;SDS011;6970;51.340;3.240;2023-01-01T06:51:39;10.33;;;2.10;;
13797;SDS011;6970;51.340;3.240;2023-01-01T06:54:07;5.07;;;1.63;;
13797;SDS011;6970;51.340;3.240;2023-01-01T06:56:35;12.90;;;2.40;;
13797;SDS011;6970;51.340;3.240;2023-01-01T07:01:34;9.00;;;2.13;;
13797;SDS011;6970;51.340;3.240;2023-01-01T07:04:06;7.70;;;2.17;;
13797;SDS011;6970;51.340;3.240;2023-01-01T07:06:42;7.30;;;2.00;;
13797;SDS011;6970;51.340;3.240;2023-01-01T07:09:15;6.87;;;2.07;;
13797;SDS011;6970;51.340;3.240;2023-01-01T07:11:44;9.00;;;2.30;;
13797;SDS011;6970;51.340;3.240;2023-01-01T07:14:14;16.73;;;2.67;;
13797;SDS011;6970;51.340;3.240;2023-01-01T07:16:43;18.13;;;2.37;;
13797;SDS011;6970;51.340;3.240;2023-01-01T07:19:11;7.30;;;1.73;;
13797;SDS011;6970;51.340;3.240;2023-01-01T07:21:45;10.57;;;1.80;;
13797;SDS011;6970;51.340;3.240;2023-01-01T07:24:23;11.97;;;1.90;;
13797;SDS011;6970;51.340;3.240;2023-01-01T07:26:56;12.70;;;2.50;;
13797;SDS011;6970;51.340;3.240;2023-01-01T07:29:25;6.10;;;1.97;;
13797;SDS011;6970;51.340;3.240;2023-01-01T07:39:35;11.83;;;2.77;;
13797;SDS011;6970;51.340;3.240;2023-01-01T07:52:22;14.27;;;2.20;;
13797;SDS011;6970;51.340;3.240;2023-01-01T07:54:52;9.80;;;2.37;;
13797;SDS011;6970;51.340;3.240;2023-01-01T07:57:19;7.83;;;1.90;;
13797;SDS011;6970;51.340;3.240;2023-01-01T07:59:47;7.63;;;2.07;;
13797;SDS011;6970;51.340;3.240;2023-01-01T08:02:16;8.80;;;1.80;;
13797;SDS011;6970;51.340;3.240;2023-01-01T08:04:44;6.33;;;1.90;;
13797;SDS011;6970;51.340;3.240;2023-01-01T08:07:12;6.67;;;2.13;;
13797;SDS011;6970;51.340;3.240;2023-01-01T08:09:41;7.33;;;2.23;;
13797;SDS011;6970;51.340;3.240;2023-01-01T08:12:11;8.77;;;2.03;;
13797;SDS011;6970;51.340;3.240;2023-01-01T08:17:09;10.77;;;2.40;;
13797;SDS011;6970;51.340;3.240;2023-01-01T08:19:37;9.67;;;2.40;;
13797;SDS011;6970;51.340;3.240;2023-01-01T08:22:06;9.73;;;1.87;;
13797;SDS011;6970;51.340;3.240;2023-01-01T08:24:36;11.10;;;2.23;;
13797;SDS011;6970;51.340;3.240;2023-01-01T08:27:06;9.40;;;2.00;;
13797;SDS011;6970;51.340;3.240;2023-01-01T08:29:35;12.27;;;2.33;;
13797;SDS011;6970;51.340;3.240;2023-01-01T08:32:08;11.70;;;2.53;;
13797;SDS011;6970;51.340;3.240;2023-01-01T08:34:36;8.00;;;2.00;;
13797;SDS011;6970;51.340;3.240;2023-01-01T08:37:03;7.53;;;2.53;;
13797;SDS011;6970;51.340;3.240;2023-01-01T08:39:32;9.00;;;2.23;;
13797;SDS011;6970;51.340;3.240;2023-01-01T08:41:59;6.10;;;2.17;;
13797;SDS011;6970;51.340;3.240;2023-01-01T08:46:59;11.07;;;2.13;;
13797;SDS011;6970;51.340;3.240;2023-01-01T08:49:32;9.40;;;1.93;;
13797;SDS011;6970;51.340;3.240;2023-01-01T08:54:32;8.20;;;1.83;;
13797;SDS011;6970;51.340;3.240;2023-01-01T08:59:30;7.83;;;1.93;;
13797;SDS011;6970;51.340;3.240;2023-01-01T09:02:00;7.63;;;2.40;;
13797;SDS011;6970;51.340;3.240;2023-01-01T09:04:28;9.13;;;2.37;;
13797;SDS011;6970;51.340;3.240;2023-01-01T09:07:01;11.20;;;2.70;;
13797;SDS011;6970;51.340;3.240;2023-01-01T09:09:39;8.13;;;2.57;;
13797;SDS011;6970;51.340;3.240;2023-01-01T09:12:14;8.50;;;2.37;;
13797;SDS011;6970;51.340;3.240;2023-01-01T09:14:46;11.77;;;2.70;;
13797;SDS011;6970;51.340;3.240;2023-01-01T09:17:14;7.87;;;2.40;;
13797;SDS011;6970;51.340;3.240;2023-01-01T09:19:42;7.90;;;2.40;;
13797;SDS011;6970;51.340;3.240;2023-01-01T09:22:11;8.80;;;2.30;;
13797;SDS011;6970;51.340;3.240;2023-01-01T09:24:39;9.30;;;2.47;;
13797;SDS011;6970;51.340;3.240;2023-01-01T09:27:06;9.00;;;2.00;;
13797;SDS011;6970;51.340;3.240;2023-01-01T09:29:35;6.77;;;2.40;;
13797;SDS011;6970;51.340;3.240;2023-01-01T09:34:33;7.03;;;2.20;;
13797;SDS011;6970;51.340;3.240;2023-01-01T09:37:03;7.73;;;2.40;;
13797;SDS011;6970;51.340;3.240;2023-01-01T09:39:32;5.30;;;1.77;;
13797;SDS011;6970;51.340;3.240;2023-01-01T09:45:04;7.97;;;1.73;;
13797;SDS011;6970;51.340;3.240;2023-01-01T09:48:17;5.47;;;2.17;;
13797;SDS011;6970;51.340;3.240;2023-01-01T09:50:40;7.10;;;2.30;;
13797;SDS011;6970;51.340;3.240;2023-01-01T09:53:21;7.67;;;2.10;;
13797;SDS011;6970;51.340;3.240;2023-01-01T09:55:58;9.00;;;2.20;;
13797;SDS011;6970;51.340;3.240;2023-01-01T09:58:30;6.40;;;2.57;;
13797;SDS011;6970;51.340;3.240;2023-01-01T10:01:08;6.17;;;2.40;;
13797;SDS011;6970;51.340;3.240;2023-01-01T10:04:03;7.80;;;2.27;;
13797;SDS011;6970;51.340;3.240;2023-01-01T10:06:39;5.63;;;2.10;;
13797;SDS011;6970;51.340;3.240;2023-01-01T10:12:10;6.13;;;2.27;;
13797;SDS011;6970;51.340;3.240;2023-01-01T10:14:48;8.90;;;2.47;;
13797;SDS011;6970;51.340;3.240;2023-01-01T10:17:31;6.53;;;1.93;;
13797;SDS011;6970;51.340;3.240;2023-01-01T10:20:10;6.17;;;2.40;;
13797;SDS011;6970;51.340;3.240;2023-01-01T10:25:29;8.00;;;2.47;;
13797;SDS011;6970;51.340;3.240;2023-01-01T10:28:05;11.93;;;2.80;;
13797;SDS011;6970;51.340;3.240;2023-01-01T10:30:39;9.87;;;2.77;;
13797;SDS011;6970;51.340;3.240;2023-01-01T10:33:09;7.47;;;1.97;;
13797;SDS011;6970;51.340;3.240;2023-01-01T10:38:21;9.37;;;2.40;;
13797;SDS011;6970;51.340;3.240;2023-01-01T10:40:52;7.17;;;2.60;;
13797;SDS011;6970;51.340;3.240;2023-01-01T10:43:26;8.90;;;2.17;;
13797;SDS011;6970;51.340;3.240;2023-01-01T10:46:00;6.43;;;2.03;;
13797;SDS011;6970;51.340;3.240;2023-01-01T10:48:30;11.87;;;3.00;;
13797;SDS011;6970;51.340;3.240;2023-01-01T10:51:03;9.03;;;1.90;;
13797;SDS011;6970;51.340;3.240;2023-01-01T10:53:50;8.90;;;2.63;;
13797;SDS011;6970;51.340;3.240;2023-01-01T10:56:23;7.20;;;2.37;;
13797;SDS011;6970;51.340;3.240;2023-01-01T10:58:55;12.43;;;2.83;;
13797;SDS011;6970;51.340;3.240;2023-01-01T11:01:32;8.33;;;2.30;;
13797;SDS011;6970;51.340;3.240;2023-01-01T11:04:19;9.83;;;2.10;;
13797;SDS011;6970;51.340;3.240;2023-01-01T11:06:46;8.67;;;2.27;;
13797;SDS011;6970;51.340;3.240;2023-01-01T11:09:20;7.97;;;2.53;;
13797;SDS011;6970;51.340;3.240;2023-01-01T11:12:06;5.07;;;1.70;;
13797;SDS011;6970;51.340;3.240;2023-01-01T11:15:02;9.13;;;2.37;;
13797;SDS011;6970;51.340;3.240;2023-01-01T11:17:31;7.23;;;1.90;;
13797;SDS011;6970;51.340;3.240;2023-01-01T11:20:03;10.30;;;1.87;;
13797;SDS011;6970;51.340;3.240;2023-01-01T11:22:44;13.33;;;2.63;;
13797;SDS011;6970;51.340;3.240;2023-01-01T11:25:20;6.20;;;2.00;;
13797;SDS011;6970;51.340;3.240;2023-01-01T11:27:50;7.13;;;2.20;;
13797;SDS011;6970;51.340;3.240;2023-01-01T11:30:28;9.07;;;2.20;;
13797;SDS011;6970;51.340;3.240;2023-01-01T11:32:56;9.80;;;2.67;;
13797;SDS011;6970;51.340;3.240;2023-01-01T11:35:30;8.13;;;2.87;;
13797;SDS011;6970;51.340;3.240;2023-01-01T11:38:00;8.07;;;2.07;;
13797;SDS011;6970;51.340;3.240;2023-01-01T11:40:34;7.33;;;2.80;;
13797;SDS011;6970;51.340;3.240;2023-01-01T11:43:04;8.53;;;2.73;;
13797;SDS011;6970;51.340;3.240;2023-01-01T11:45:39;8.43;;;2.17;;
13797;SDS011;6970;51.340;3.240;2023-01-01T11:50:51;14.97;;;2.60;;
13797;SDS011;6970;51.340;3.240;2023-01-01T11:58:55;5.63;;;2.33;;
13797;SDS011;6970;51.340;3.240;2023-01-01T12:01:45;6.23;;;1.67;;
13797;SDS011;6970;51.340;3.240;2023-01-01T12:18:21;7.67;;;2.10;;
13797;SDS011;6970;51.340;3.240;2023-01-01T12:23:45;11.43;;;2.33;;
13797;SDS011;6970;51.340;3.240;2023-01-01T12:34:58;10.40;;;2.90;;
13797;SDS011;6970;51.340;3.240;2023-01-01T12:40:21;10.07;;;3.00;;
13797;SDS011;6970;51.340;3.240;2023-01-01T12:51:26;12.30;;;2.60;;
13797;SDS011;6970;51.340;3.240;2023-01-01T12:54:10;11.83;;;2.47;;
13797;SDS011;6970;51.340;3.240;2023-01-01T12:59:35;11.30;;;2.97;;
13797;SDS011;6970;51.340;3.240;2023-01-01T13:02:46;8.83;;;2.27;;
13797;SDS011;6970;51.340;3.240;2023-01-01T13:05:04;11.17;;;2.23;;
13797;SDS011;6970;51.340;3.240;2023-01-01T13:07:42;9.77;;;2.17;;
13797;SDS011;6970;51.340;3.240;2023-01-01T13:10:26;13.80;;;2.83;;
13797;SDS011;6970;51.340;3.240;2023-01-01T13:13:05;6.93;;;2.07;;
13797;SDS011;6970;51.340;3.240;2023-01-01T13:15:45;10.30;;;2.23;;
13797;SDS011;6970;51.340;3.240;2023-01-01T13:18:20;8.70;;;2.23;;
13797;SDS011;6970;51.340;3.240;2023-01-01T13:23:42;8.97;;;2.13;;
13797;SDS011;6970;51.340;3.240;2023-01-01T13:40:01;10.50;;;2.27;;
13797;SDS011;6970;51.340;3.240;2023-01-01T13:42:45;8.47;;;2.33;;
13797;SDS011;6970;51.340;3.240;2023-01-01T13:45:43;6.20;;;2.10;;
13797;SDS011;6970;51.340;3.240;2023-01-01T14:03:39;8.30;;;1.97;;
13797;SDS011;6970;51.340;3.240;2023-01-01T14:06:11;9.43;;;3.17;;
13797;SDS011;6970;51.340;3.240;2023-01-01T14:11:26;7.00;;;1.83;;
13797;SDS011;6970;51.340;3.240;2023-01-01T14:18:58;9.27;;;2.53;;
13797;SDS011;6970;51.340;3.240;2023-01-01T14:26:35;12.70;;;2.63;;
13797;SDS011;6970;51.340;3.240;2023-01-01T14:29:14;11.23;;;2.80;;
13797;SDS011;6970;51.340;3.240;2023-01-01T14:31:58;11.60;;;2.87;;
13797;SDS011;6970;51.340;3.240;2023-01-01T14:34:29;8.23;;;2.33;;
13797;SDS011;6970;51.340;3.240;2023-01-01T14:37:00;12.13;;;2.87;;
13797;SDS011;6970;51.340;3.240;2023-01-01T14:39:30;9.47;;;2.43;;
13797;SDS011;6970;51.340;3.240;2023-01-01T14:42:01;12.00;;;2.07;;
13797;SDS011;6970;51.340;3.240;2023-01-01T14:44:37;10.43;;;3.00;;
13797;SDS011;6970;51.340;3.240;2023-01-01T14:47:26;12.20;;;3.40;;
13797;SDS011;6970;51.340;3.240;2023-01-01T14:50:02;8.97;;;2.37;;
13797;SDS011;6970;51.340;3.240;2023-01-01T14:52:41;8.53;;;2.63;;
13797;SDS011;6970;51.340;3.240;2023-01-01T14:55:15;10.67;;;2.83;;
13797;SDS011;6970;51.340;3.240;2023-01-01T14:57:47;11.13;;;3.33;;
13797;SDS011;6970;51.340;3.240;2023-01-01T15:00:33;13.93;;;3.20;;
13797;SDS011;6970;51.340;3.240;2023-01-01T15:03:34;12.33;;;2.70;;
13797;SDS011;6970;51.340;3.240;2023-01-01T15:06:00;11.10;;;3.40;;
13797;SDS011;6970;51.340;3.240;2023-01-01T15:08:28;7.77;;;2.63;;
13797;SDS011;6970;51.340;3.240;2023-01-01T15:13:29;12.15;;;3.65;;
13797;SDS011;6970;51.340;3.240;2023-01-01T15:21:24;8.23;;;3.33;;
13797;SDS011;6970;51.340;3.240;2023-01-01T15:26:41;8.93;;;3.10;;
13797;SDS011;6970;51.340;3.240;2023-01-01T15:31:52;10.83;;;3.37;;
13797;SDS011;6970;51.340;3.240;2023-01-01T15:34:31;10.07;;;4.03;;
13797;SDS011;6970;51.340;3.240;2023-01-01T15:37:08;11.43;;;3.33;;
13797;SDS011;6970;51.340;3.240;2023-01-01T15:47:53;14.80;;;3.90;;
13797;SDS011;6970;51.340;3.240;2023-01-01T15:50:34;9.87;;;2.93;;
13797;SDS011;6970;51.340;3.240;2023-01-01T15:53:19;10.60;;;3.80;;
13797;SDS011;6970;51.340;3.240;2023-01-01T15:56:08;17.23;;;4.37;;
13797;SDS011;6970;51.340;3.240;2023-01-01T16:03:49;10.53;;;3.60;;
13797;SDS011;6970;51.340;3.240;2023-01-01T16:06:28;9.07;;;3.70;;
13797;SDS011;6970;51.340;3.240;2023-01-01T16:08:55;13.07;;;3.93;;
13797;SDS011;6970;51.340;3.240;2023-01-01T16:13:52;14.00;;;4.03;;
13797;SDS011;6970;51.340;3.240;2023-01-01T16:18:57;10.33;;;3.33;;
13797;SDS011;6970;51.340;3.240;2023-01-01T16:21:26;10.73;;;4.03;;
13797;SDS011;6970;51.340;3.240;2023-01-01T16:23:54;11.40;;;3.27;;
13797;SDS011;6970;51.340;3.240;2023-01-01T16:26:22;10.70;;;3.77;;
13797;SDS011;6970;51.340;3.240;2023-01-01T16:28:49;12.00;;;3.50;;
13797;SDS011;6970;51.340;3.240;2023-01-01T16:31:24;13.07;;;3.77;;
13797;SDS011;6970;51.340;3.240;2023-01-01T16:33:55;12.00;;;3.87;;
13797;SDS011;6970;51.340;3.240;2023-01-01T16:36:25;15.47;;;4.97;;
13797;SDS011;6970;51.340;3.240;2023-01-01T16:38:57;11.30;;;3.67;;
13797;SDS011;6970;51.340;3.240;2023-01-01T16:41:25;13.33;;;5.00;;
13797;SDS011;6970;51.340;3.240;2023-01-01T16:43:54;10.57;;;4.20;;
13797;SDS011;6970;51.340;3.240;2023-01-01T16:46:24;11.87;;;4.00;;
13797;SDS011;6970;51.340;3.240;2023-01-01T16:48:54;6.93;;;3.73;;
13797;SDS011;6970;51.340;3.240;2023-01-01T16:51:26;12.60;;;4.30;;
13797;SDS011;6970;51.340;3.240;2023-01-01T16:53:56;11.60;;;4.87;;
13797;SDS011;6970;51.340;3.240;2023-01-01T16:58:57;9.47;;;3.70;;
13797;SDS011;6970;51.340;3.240;2023-01-01T17:01:33;11.83;;;4.70;;
13797;SDS011;6970;51.340;3.240;2023-01-01T17:04:01;13.27;;;4.53;;
13797;SDS011;6970;51.340;3.240;2023-01-01T17:06:31;8.73;;;4.53;;
13797;SDS011;6970;51.340;3.240;2023-01-01T17:08:59;9.23;;;4.10;;
13797;SDS011;6970;51.340;3.240;2023-01-01T17:11:26;5.23;;;3.80;;
13797;SDS011;6970;51.340;3.240;2023-01-01T17:13:59;9.30;;;3.43;;
13797;SDS011;6970;51.340;3.240;2023-01-01T17:16:29;9.57;;;3.60;;
13797;SDS011;6970;51.340;3.240;2023-01-01T17:19:07;8.80;;;3.50;;
13797;SDS011;6970;51.340;3.240;2023-01-01T17:21:44;7.63;;;3.70;;
13797;SDS011;6970;51.340;3.240;2023-01-01T17:24:13;5.37;;;4.40;;
13797;SDS011;6970;51.340;3.240;2023-01-01T17:26:41;11.03;;;3.93;;
13797;SDS011;6970;51.340;3.240;2023-01-01T17:29:10;6.87;;;3.23;;
13797;SDS011;6970;51.340;3.240;2023-01-01T17:31:40;6.30;;;3.40;;
13797;SDS011;6970;51.340;3.240;2023-01-01T17:34:09;9.90;;;4.20;;
13797;SDS011;6970;51.340;3.240;2023-01-01T17:36:40;10.27;;;4.23;;
13797;SDS011;6970;51.340;3.240;2023-01-01T17:41:40;8.87;;;4.00;;
13797;SDS011;6970;51.340;3.240;2023-01-01T17:44:07;9.60;;;4.87;;
13797;SDS011;6970;51.340;3.240;2023-01-01T17:46:38;14.47;;;4.43;;
13797;SDS011;6970;51.340;3.240;2023-01-01T17:49:10;9.17;;;4.83;;
13797;SDS011;6970;51.340;3.240;2023-01-01T17:51:37;10.83;;;4.90;;
13797;SDS011;6970;51.340;3.240;2023-01-01T17:54:05;11.83;;;5.60;;
13797;SDS011;6970;51.340;3.240;2023-01-01T17:59:09;14.00;;;5.57;;
13797;SDS011;6970;51.340;3.240;2023-01-01T18:04:09;10.97;;;5.77;;
13797;SDS011;6970;51.340;3.240;2023-01-01T18:06:38;9.43;;;5.30;;
13797;SDS011;6970;51.340;3.240;2023-01-01T18:09:12;15.93;;;8.70;;
13797;SDS011;6970;51.340;3.240;2023-01-01T18:11:40;9.00;;;6.03;;
13797;SDS011;6970;51.340;3.240;2023-01-01T18:14:07;14.03;;;6.57;;
13797;SDS011;6970;51.340;3.240;2023-01-01T18:19:07;9.70;;;5.27;;
13797;SDS011;6970;51.340;3.240;2023-01-01T18:24:11;10.43;;;5.07;;
13797;SDS011;6970;51.340;3.240;2023-01-01T18:26:45;8.50;;;5.03;;
13797;SDS011;6970;51.340;3.240;2023-01-01T18:29:14;7.90;;;6.57;;
13797;SDS011;6970;51.340;3.240;2023-01-01T18:31:42;8.03;;;5.33;;
13797;SDS011;6970;51.340;3.240;2023-01-01T18:34:10;9.30;;;5.40;;
13797;SDS011;6970;51.340;3.240;2023-01-01T18:36:39;7.47;;;5.13;;
13797;SDS011;6970;51.340;3.240;2023-01-01T18:39:20;11.70;;;5.40;;
13797;SDS011;6970;51.340;3.240;2023-01-01T18:44:32;7.97;;;5.73;;
13797;SDS011;6970;51.340;3.240;2023-01-01T18:49:34;8.80;;;6.37;;
13797;SDS011;6970;51.340;3.240;2023-01-01T18:52:12;7.83;;;6.00;;
13797;SDS011;6970;51.340;3.240;2023-01-01T18:57:23;28.37;;;14.40;;
13797;SDS011;6970;51.340;3.240;2023-01-01T18:59:57;13.23;;;10.33;;
13797;SDS011;6970;51.340;3.240;2023-01-01T19:02:42;7.13;;;6.20;;
13797;SDS011;6970;51.340;3.240;2023-01-01T19:05:21;9.40;;;6.13;;
13797;SDS011;6970;51.340;3.240;2023-01-01T19:07:53;8.77;;;7.67;;
13797;SDS011;6970;51.340;3.240;2023-01-01T19:10:25;12.23;;;6.60;;
13797;SDS011;6970;51.340;3.240;2023-01-01T19:12:59;10.63;;;6.63;;
13797;SDS011;6970;51.340;3.240;2023-01-01T19:18:29;7.67;;;5.37;;
13797;SDS011;6970;51.340;3.240;2023-01-01T19:26:13;9.23;;;6.40;;
13797;SDS011;6970;51.340;3.240;2023-01-01T19:28:55;9.47;;;5.90;;
13797;SDS011;6970;51.340;3.240;2023-01-01T19:31:25;7.37;;;5.60;;
13797;SDS011;6970;51.340;3.240;2023-01-01T19:33:52;8.90;;;5.43;;
13797;SDS011;6970;51.340;3.240;2023-01-01T19:36:20;6.40;;;4.87;;
13797;SDS011;6970;51.340;3.240;2023-01-01T19:38:49;7.00;;;5.00;;
13797;SDS011;6970;51.340;3.240;2023-01-01T19:41:17;13.40;;;8.50;;
13797;SDS011;6970;51.340;3.240;2023-01-01T19:46:14;11.73;;;7.53;;
13797;SDS011;6970;51.340;3.240;2023-01-01T19:48:41;6.23;;;5.63;;
13797;SDS011;6970;51.340;3.240;2023-01-01T19:51:09;7.20;;;4.97;;
13797;SDS011;6970;51.340;3.240;2023-01-01T19:53:36;10.53;;;5.57;;
13797;SDS011;6970;51.340;3.240;2023-01-01T19:56:03;7.00;;;4.97;;
13797;SDS011;6970;51.340;3.240;2023-01-01T19:58:30;4.93;;;4.40;;
13797;SDS011;6970;51.340;3.240;2023-01-01T20:00:57;6.97;;;4.43;;
13797;SDS011;6970;51.340;3.240;2023-01-01T20:03:24;8.23;;;5.20;;
13797;SDS011;6970;51.340;3.240;2023-01-01T20:06:12;5.87;;;5.27;;
13797;SDS011;6970;51.340;3.240;2023-01-01T20:08:40;9.73;;;5.63;;
13797;SDS011;6970;51.340;3.240;2023-01-01T20:11:07;7.03;;;5.20;;
13797;SDS011;6970;51.340;3.240;2023-01-01T20:13:34;7.60;;;5.87;;
13797;SDS011;6970;51.340;3.240;2023-01-01T20:16:02;9.83;;;5.43;;
13797;SDS011;6970;51.340;3.240;2023-01-01T20:18:31;8.47;;;5.47;;
13797;SDS011;6970;51.340;3.240;2023-01-01T20:20:58;11.90;;;6.27;;
13797;SDS011;6970;51.340;3.240;2023-01-01T20:23:51;8.37;;;5.90;;
13797;SDS011;6970;51.340;3.240;2023-01-01T20:26:18;9.10;;;6.40;;
13797;SDS011;6970;51.340;3.240;2023-01-01T20:28:46;6.87;;;5.83;;
13797;SDS011;6970;51.340;3.240;2023-01-01T20:31:31;8.50;;;5.90;;